Redwood City, CA (94063)

5:10 AM PDT on August 26, 2016 (GMT -0700)
| | Change Station

Elev -9999 ft 0.00 °N, 0.00 °E | Updated

Mostly Cloudy
Mostly Cloudy
60 °F
Feels Like 60 °F
N
4
Wind Variable Wind from South
Gusts mph

Today
High -- | Low -- °F
--% Chance of Precip.
Yesterday
High -- | Low -- °F
Precip. -- in
Pressure 29.91 in
Visibility 10.0 miles
Clouds Overcast 1600 ft
Dew Point 54 °F
Humidity 82%
Rainfall --
Snow Depth Not available.
6:34 AM 7:45 PM
Waning Crescent, 35% visible
METAR KSQL 261155Z AUTO 19004KT 10SM OVC016 15/12 A2991 RMK AO2
Pressure 29.91 in
Visibility 10.0 miles
Clouds Overcast 1600 ft
Dew Point 54 °F
Humidity 82%
Rainfall --
Snow Depth Not available.
6:34 AM 7:45 PM
Waning Crescent, 35% visible
METAR KSQL 261155Z AUTO 19004KT 10SM OVC016 15/12 A2991 RMK AO2

10-Day Weather Forecast

Almanac

Astronomy

Aug. 26, 2016 Rise Set
Actual Time
Civil Twilight
Nautical Twilight
Astronomical Twilight
Moon
Length of Visible Light
Length of Day
Tomorrow will be .
, % of the Moon is Illuminated

Today's Extremes

State Highs State Lows

Community

WunderPhotos

Upload Photos

1,935,077 photos uploaded!

WunderBlog® & News

Nearby

Air Quality

  Air Quality AQ Index Pollutant
Not available.

Snow Depth

Station Depth Elevation

Earthquake Activity

City Distance Mag. Time & Date
Minimum magnitude displayed is 2.5.

Coastal Water Temperatures

Place Temperature

Stations

Nearby Weather Stations

Station Location Temp. Windchill Dew Point Humidity Wind Precip. Elev Updated Type
                   

Watches & Warnings

There are currently no watches in effect.